AFP1 LPPR-LPMR
Flight info
| Callsign | AFP1 |
|---|---|
| Flight time | N/A |
| Altitude | 18000 |
| Route | FGFOZ NZARE ODIVL |
| Aircraft | F16/M-V/N |
Departure
| Time | N/A |
|---|---|
| Airport | Francisco de Sá Carneiro Airport (LPPR) |
Arrival
| Time | 2026-05-05 16:29 |
|---|---|
| Airport | Monte Real Air Base (LPMR) |
| Time | Latitude | Longitude | Altitude | Speed | Heading |
|---|---|---|---|---|---|
| 2026-05-05 16:23 | 40.18130 | -8.78201 | 12402 ft | 298 kts | 193° |
| 2026-05-05 16:24 | 40.16146 | -8.78614 | 11250 ft | 283 kts | 193° |
| 2026-05-05 16:24 | 40.14243 | -8.79060 | 10017 ft | 271 kts | 193° |
| 2026-05-05 16:24 | 40.10538 | -8.80058 | 6330 ft | 271 kts | 195° |
| 2026-05-05 16:25 | 40.08711 | -8.80562 | 4649 ft | 265 kts | 194° |
| 2026-05-05 16:25 | 40.05292 | -8.81476 | 2612 ft | 225 kts | 195° |
| 2026-05-05 16:25 | 40.03782 | -8.81866 | 2084 ft | 219 kts | 195° |
| 2026-05-05 16:26 | 40.00558 | -8.82758 | 1845 ft | 253 kts | 198° |
| 2026-05-05 16:26 | 39.97093 | -8.83813 | 1552 ft | 255 kts | 195° |
| 2026-05-05 16:27 | 39.95450 | -8.84279 | 1314 ft | 257 kts | 198° |
| 2026-05-05 16:27 | 39.93837 | -8.85148 | 1185 ft | 246 kts | 212° |
| 2026-05-05 16:27 | 39.92327 | -8.86236 | 1121 ft | 252 kts | 212° |
| 2026-05-05 16:27 | 39.90852 | -8.87370 | 1063 ft | 249 kts | 215° |
| 2026-05-05 16:28 | 39.89325 | -8.88428 | 1031 ft | 237 kts | 200° |
| 2026-05-05 16:28 | 39.87801 | -8.88666 | 499 ft | 209 kts | 181° |
| 2026-05-05 16:28 | 39.86493 | -8.88611 | 306 ft | 174 kts | 185° |
| 2026-05-05 16:28 | 39.85313 | -8.88657 | 331 ft | 170 kts | 184° |
| 2026-05-05 16:29 | 39.84138 | -8.88683 | 186 ft | 166 kts | 188° |
| 2026-05-05 16:29 | 39.83068 | -8.88739 | 183 ft | 113 kts | 183° |
| 2026-05-05 16:29 | 39.82481 | -8.88745 | 187 ft | 75 kts | 180° |
| 2026-05-05 16:29 | 39.82054 | -8.88786 | 186 ft | 0 kts | 185° |
| 2026-05-05 16:30 | 39.81988 | -8.88885 | 186 ft | 20 kts | 226° |
| 2026-05-05 16:30 | 39.81953 | -8.88936 | 186 ft | 0 kts | 229° |